createdAt,value
2023-05-18T00:01:40.902Z,4.45
2023-05-18T00:04:08.234Z,4.43
2023-05-18T00:06:38.620Z,4.41
2023-05-18T00:09:05.793Z,4.37
2023-05-18T00:11:33.572Z,4.34
2023-05-18T00:14:00.822Z,4.30
2023-05-18T00:16:27.834Z,4.26
2023-05-18T00:18:54.800Z,4.22
2023-05-18T00:21:22.586Z,4.19
2023-05-18T00:23:50.526Z,4.16
2023-05-18T00:26:17.533Z,4.14
2023-05-18T00:28:44.559Z,4.12
2023-05-18T00:31:11.793Z,4.08
2023-05-18T00:33:38.813Z,4.05
2023-05-18T00:36:06.271Z,4.03
2023-05-18T00:38:33.680Z,4.00
2023-05-18T00:41:00.540Z,3.97
2023-05-18T00:43:27.587Z,3.95
2023-05-18T00:45:54.761Z,3.92
2023-05-18T00:48:21.835Z,3.88
2023-05-18T00:50:48.594Z,3.84
2023-05-18T00:53:15.807Z,3.81
2023-05-18T00:55:42.736Z,3.78
2023-05-18T00:58:09.905Z,3.75
2023-05-18T01:00:37.769Z,3.73
2023-05-18T01:03:05.147Z,3.69
2023-05-18T01:05:32.324Z,3.66
2023-05-18T01:08:00.057Z,3.65
2023-05-18T01:10:27.222Z,3.62
2023-05-18T01:12:59.579Z,3.59
2023-05-18T01:15:34.355Z,3.56
2023-05-18T01:18:23.468Z,3.53
2023-05-18T01:20:59.678Z,3.50
2023-05-18T01:23:45.303Z,3.47
2023-05-18T01:26:17.118Z,3.45
2023-05-18T01:28:46.512Z,3.44
2023-05-18T01:31:16.034Z,3.40
2023-05-18T01:33:43.743Z,3.38
2023-05-18T01:36:11.352Z,3.36
2023-05-18T01:38:39.399Z,3.33
2023-05-18T01:41:14.202Z,3.29
2023-05-18T01:44:19.134Z,3.25
2023-05-18T01:47:02.893Z,3.23
2023-05-18T01:49:45.378Z,3.19
2023-05-18T01:52:20.725Z,3.16
2023-05-18T01:54:52.327Z,3.15
2023-05-18T01:57:21.758Z,3.13
2023-05-18T01:59:48.715Z,3.12
2023-05-18T02:02:16.114Z,3.10
2023-05-18T02:04:43.221Z,3.09
2023-05-18T02:07:10.007Z,3.07
2023-05-18T02:09:36.894Z,3.04
2023-05-18T02:12:04.168Z,3.01
2023-05-18T02:14:31.065Z,2.99
2023-05-18T02:16:57.858Z,2.96
2023-05-18T02:19:25.432Z,2.93
2023-05-18T02:21:52.448Z,2.91
2023-05-18T02:24:19.527Z,2.90
2023-05-18T02:26:46.446Z,2.89
2023-05-18T02:29:14.600Z,2.85
2023-05-18T02:31:41.927Z,2.81
2023-05-18T02:34:09.357Z,2.79
2023-05-18T02:36:42.829Z,2.76
2023-05-18T02:39:13.166Z,2.75
2023-05-18T02:41:40.106Z,2.74
2023-05-18T02:44:07.200Z,2.74
2023-05-18T02:46:34.222Z,2.73
2023-05-18T02:49:01.201Z,2.71
2023-05-18T02:51:28.456Z,2.70
2023-05-18T02:53:55.967Z,2.70
2023-05-18T02:56:23.300Z,2.70
2023-05-18T02:58:50.617Z,2.69
2023-05-18T03:01:17.454Z,2.67
2023-05-18T03:03:44.582Z,2.64
2023-05-18T03:06:11.693Z,2.62
2023-05-18T03:08:41.001Z,2.61
2023-05-18T03:11:07.969Z,2.60
2023-05-18T03:13:34.701Z,2.59
2023-05-18T03:16:01.646Z,2.59
2023-05-18T03:18:28.634Z,2.58
2023-05-18T03:20:56.262Z,2.57
2023-05-18T03:23:23.381Z,2.55
2023-05-18T03:25:53.658Z,2.55
2023-05-18T03:28:20.842Z,2.53
2023-05-18T03:30:48.068Z,2.52
2023-05-18T03:33:14.984Z,2.53
2023-05-18T03:35:42.203Z,2.54
2023-05-18T03:38:09.133Z,2.55
2023-05-18T03:40:36.404Z,2.56
2023-05-18T03:43:03.793Z,2.57
2023-05-18T03:45:31.089Z,2.57
2023-05-18T03:47:58.184Z,2.57
2023-05-18T03:50:25.426Z,2.58
2023-05-18T03:52:53.055Z,2.59
2023-05-18T03:55:21.510Z,2.61
2023-05-18T03:57:48.952Z,2.64
2023-05-18T04:00:16.364Z,2.68
2023-05-18T04:02:43.516Z,2.72
2023-05-18T04:05:10.857Z,2.76
2023-05-18T04:07:44.107Z,2.82
2023-05-18T04:10:12.439Z,2.88
2023-05-18T04:12:39.592Z,2.95
2023-05-18T04:15:07.132Z,3.00
2023-05-18T04:17:35.513Z,3.07
2023-05-18T04:20:11.486Z,3.14
2023-05-18T04:22:43.302Z,3.23
2023-05-18T04:25:14.531Z,3.31
2023-05-18T04:27:49.122Z,3.39
2023-05-18T04:30:18.765Z,3.47
2023-05-18T04:32:46.098Z,3.54
2023-05-18T04:35:13.382Z,3.61
2023-05-18T04:37:40.932Z,3.71
2023-05-18T04:40:08.429Z,3.81
2023-05-18T04:42:38.225Z,3.93
2023-05-18T04:45:06.206Z,4.03
2023-05-18T04:47:33.293Z,4.14
2023-05-18T04:50:00.265Z,4.28
2023-05-18T04:52:30.738Z,4.40
2023-05-18T04:54:57.845Z,4.52
2023-05-18T04:57:24.801Z,4.62
2023-05-18T04:59:53.203Z,4.71
2023-05-18T05:02:20.367Z,4.83
2023-05-18T05:04:47.239Z,4.97
2023-05-18T05:07:14.318Z,5.08
2023-05-18T05:09:41.416Z,5.19
2023-05-18T05:12:08.696Z,5.33
2023-05-18T05:14:35.617Z,5.45
2023-05-18T05:17:02.805Z,5.56
2023-05-18T05:19:29.765Z,5.69
2023-05-18T05:21:56.751Z,5.83
2023-05-18T05:24:23.648Z,5.94
2023-05-18T05:26:50.575Z,6.02
2023-05-18T05:29:17.240Z,6.15
2023-05-18T05:31:44.440Z,6.30
2023-05-18T05:34:11.997Z,6.43
2023-05-18T05:36:39.425Z,6.56
2023-05-18T05:39:06.335Z,6.67
2023-05-18T05:41:33.147Z,6.80
2023-05-18T05:44:00.206Z,6.93
2023-05-18T05:46:27.126Z,7.11
2023-05-18T05:48:54.065Z,7.29
2023-05-18T05:51:20.926Z,7.45
2023-05-18T05:53:49.349Z,7.61
2023-05-18T05:56:16.402Z,7.75
2023-05-18T05:58:44.283Z,7.89
2023-05-18T06:01:11.223Z,8.05
2023-05-18T06:03:38.914Z,8.18
2023-05-18T06:06:06.393Z,8.31
2023-05-18T06:08:34.492Z,8.42
2023-05-18T06:11:01.430Z,8.55
2023-05-18T06:13:28.300Z,8.64
2023-05-18T06:15:55.362Z,8.73
2023-05-18T06:18:22.321Z,8.87
2023-05-18T06:20:49.470Z,9.02
2023-05-18T06:23:16.228Z,9.16
2023-05-18T06:25:43.050Z,9.31
2023-05-18T06:28:10.452Z,9.47
2023-05-18T06:30:37.344Z,9.61
2023-05-18T06:33:04.761Z,9.78
2023-05-18T06:35:31.983Z,9.88
2023-05-18T06:37:59.303Z,9.84
2023-05-18T06:40:26.289Z,9.82
2023-05-18T06:42:53.221Z,9.73
2023-05-18T06:45:19.937Z,9.78
2023-05-18T06:47:46.636Z,9.90
2023-05-18T06:50:13.754Z,9.99
2023-05-18T06:52:41.052Z,10.09
2023-05-18T06:55:09.146Z,10.20
2023-05-18T06:57:36.264Z,10.28
2023-05-18T07:00:07.059Z,10.33
2023-05-18T07:02:34.253Z,10.40
2023-05-18T07:05:01.544Z,10.43
2023-05-18T07:07:28.417Z,10.51
2023-05-18T07:09:55.360Z,10.60
2023-05-18T07:12:22.576Z,10.68
2023-05-18T07:14:49.706Z,10.76
2023-05-18T07:17:16.577Z,10.85
2023-05-18T07:19:43.636Z,10.92
2023-05-18T07:22:10.573Z,10.99
2023-05-18T07:24:37.454Z,11.11
2023-05-18T07:27:04.652Z,11.25
2023-05-18T07:29:31.963Z,11.33
2023-05-18T07:31:58.924Z,11.40
2023-05-18T07:34:27.362Z,11.49
2023-05-18T07:36:54.162Z,11.58
2023-05-18T07:39:28.502Z,11.70
2023-05-18T07:41:56.181Z,11.87
2023-05-18T07:44:24.272Z,11.96
2023-05-18T07:46:51.559Z,12.03
2023-05-18T07:49:18.578Z,12.12
2023-05-18T07:51:45.653Z,12.25
2023-05-18T07:54:12.848Z,12.37
2023-05-18T07:56:40.849Z,12.37
2023-05-18T07:59:09.178Z,12.43
2023-05-18T08:01:37.686Z,12.52
2023-05-18T08:04:04.872Z,12.54
2023-05-18T08:06:31.999Z,12.45
2023-05-18T08:08:58.771Z,12.28
2023-05-18T08:11:25.781Z,12.13
2023-05-18T08:13:52.584Z,12.16
2023-05-18T08:16:19.442Z,12.30
2023-05-18T08:18:46.222Z,12.50
2023-05-18T08:21:13.861Z,12.70
2023-05-18T08:23:40.772Z,12.91
2023-05-18T08:26:09.043Z,13.07
2023-05-18T08:28:36.822Z,13.23
2023-05-18T08:31:03.529Z,13.37
2023-05-18T08:33:32.306Z,13.44
2023-05-18T08:35:59.342Z,13.56
2023-05-18T08:38:26.344Z,13.68
2023-05-18T08:41:01.724Z,13.80
2023-05-18T08:43:33.438Z,13.83
2023-05-18T08:46:19.524Z,13.84
2023-05-18T08:48:47.217Z,13.91
2023-05-18T08:51:19.908Z,13.95
2023-05-18T08:53:52.674Z,13.82
2023-05-18T08:56:23.092Z,13.62
2023-05-18T08:58:52.479Z,13.49
2023-05-18T09:01:19.238Z,13.59
2023-05-18T09:03:50.919Z,13.76
2023-05-18T09:06:19.331Z,14.04
2023-05-18T09:08:47.103Z,14.32
2023-05-18T09:11:14.945Z,14.60
2023-05-18T09:13:43.298Z,14.85
2023-05-18T09:16:10.243Z,15.06
2023-05-18T09:18:37.053Z,15.30
2023-05-18T09:21:03.891Z,15.31
2023-05-18T09:23:30.953Z,15.30
2023-05-18T09:25:59.746Z,15.25
2023-05-18T09:28:35.395Z,15.05
2023-05-18T09:31:03.765Z,15.05
2023-05-18T09:33:37.835Z,15.18
2023-05-18T09:36:08.916Z,15.49
2023-05-18T09:38:40.623Z,15.77
2023-05-18T09:41:12.614Z,15.96
2023-05-18T09:43:40.328Z,16.13
2023-05-18T09:46:11.675Z,16.32
2023-05-18T09:48:42.997Z,16.46
2023-05-18T09:51:16.760Z,16.51
2023-05-18T09:53:49.698Z,16.49
2023-05-18T09:56:18.007Z,16.53
2023-05-18T09:58:45.675Z,16.67
2023-05-18T10:01:12.870Z,16.86
2023-05-18T10:03:40.556Z,17.11
2023-05-18T10:06:13.412Z,17.33
2023-05-18T10:08:40.835Z,17.43
2023-05-18T10:11:07.950Z,17.46
2023-05-18T10:13:35.617Z,17.52
2023-05-18T10:16:05.662Z,17.61
2023-05-18T10:18:35.507Z,17.69
2023-05-18T10:21:04.923Z,17.81
2023-05-18T10:23:34.017Z,17.88
2023-05-18T10:26:00.958Z,17.97
2023-05-18T10:28:38.038Z,18.02
2023-05-18T10:31:06.677Z,17.98
2023-05-18T10:33:35.882Z,17.97
2023-05-18T10:36:04.946Z,18.03
2023-05-18T10:38:33.620Z,18.09
2023-05-18T10:41:01.259Z,18.22
2023-05-18T10:43:28.690Z,18.38
2023-05-18T10:45:58.813Z,18.31
2023-05-18T10:48:26.648Z,18.29
2023-05-18T10:50:55.588Z,18.37
2023-05-18T10:53:26.806Z,18.42
2023-05-18T10:55:54.431Z,18.50
2023-05-18T10:58:25.601Z,18.56
2023-05-18T11:00:55.383Z,18.51
2023-05-18T11:03:22.517Z,18.53
2023-05-18T11:05:52.824Z,18.60
2023-05-18T11:08:30.093Z,18.62
2023-05-18T11:11:07.293Z,18.53
2023-05-18T11:13:43.448Z,18.62
2023-05-18T11:16:10.582Z,18.71
2023-05-18T11:18:50.973Z,18.84
2023-05-18T11:21:21.666Z,18.92
2023-05-18T11:24:07.555Z,18.93
2023-05-18T11:26:38.887Z,18.88
2023-05-18T11:29:19.973Z,18.91
2023-05-18T11:31:48.891Z,18.91
2023-05-18T11:34:48.265Z,18.92
2023-05-18T11:37:16.684Z,18.93
2023-05-18T11:40:00.119Z,19.02
2023-05-18T11:42:36.766Z,19.05
2023-05-18T11:45:11.010Z,19.13
2023-05-18T11:47:40.531Z,19.26
2023-05-18T11:50:09.135Z,19.32
2023-05-18T11:52:51.606Z,19.34
2023-05-18T11:55:20.567Z,19.44
2023-05-18T11:57:56.172Z,19.48
2023-05-18T12:00:25.060Z,19.55
2023-05-18T12:02:52.833Z,19.75
2023-05-18T12:05:20.910Z,20.01
2023-05-18T12:07:52.679Z,20.11
2023-05-18T12:10:22.407Z,20.24
2023-05-18T12:12:52.113Z,20.34
2023-05-18T12:15:22.507Z,20.49
2023-05-18T12:17:51.208Z,20.78
2023-05-18T12:20:19.041Z,21.07
2023-05-18T12:22:50.292Z,21.28
2023-05-18T12:25:17.557Z,21.52
2023-05-18T12:27:47.783Z,21.68
2023-05-18T12:30:19.213Z,22.02
2023-05-18T12:32:49.759Z,22.28
2023-05-18T12:35:17.222Z,22.58
2023-05-18T12:37:45.777Z,23.00
2023-05-18T12:40:14.922Z,23.41
2023-05-18T12:42:53.400Z,23.72
2023-05-18T12:45:23.728Z,24.15
2023-05-18T12:47:55.450Z,24.67
2023-05-18T12:50:24.898Z,25.01
2023-05-18T12:52:51.910Z,25.72
2023-05-18T12:55:22.855Z,26.82
2023-05-18T12:58:05.832Z,27.85
2023-05-18T13:00:34.086Z,28.59
2023-05-18T13:03:17.752Z,29.35
2023-05-18T13:05:47.074Z,30.26
2023-05-18T13:08:16.461Z,30.85
2023-05-18T13:10:45.093Z,31.09
2023-05-18T13:13:16.294Z,31.67
2023-05-18T13:15:44.207Z,32.28
2023-05-18T13:18:12.032Z,32.40
2023-05-18T13:20:49.673Z,32.51
2023-05-18T13:23:18.999Z,32.89
2023-05-18T13:25:48.834Z,33.32
2023-05-18T13:28:17.525Z,33.70
2023-05-18T13:30:45.798Z,33.53
2023-05-18T13:33:12.732Z,32.75
2023-05-18T13:35:44.238Z,32.94
2023-05-18T13:38:12.653Z,33.37
2023-05-18T13:40:40.399Z,33.49
2023-05-18T13:43:08.229Z,33.59
2023-05-18T13:45:36.181Z,33.54
2023-05-18T13:48:09.547Z,33.47
2023-05-18T13:50:38.049Z,33.28
2023-05-18T13:53:05.104Z,33.62
2023-05-18T13:55:33.262Z,34.33
2023-05-18T13:58:00.848Z,34.57
2023-05-18T14:00:27.852Z,34.75
2023-05-18T14:02:54.966Z,35.08
2023-05-18T14:05:22.293Z,35.13
2023-05-18T14:07:50.217Z,35.02
2023-05-18T14:10:17.732Z,34.80
2023-05-18T14:12:44.764Z,34.29
2023-05-18T14:15:16.044Z,34.26
2023-05-18T14:17:43.693Z,34.56
2023-05-18T14:20:12.056Z,34.64
2023-05-18T14:22:39.028Z,34.49
2023-05-18T14:25:06.440Z,33.63
2023-05-18T14:27:33.071Z,33.03
2023-05-18T14:30:00.109Z,32.44
2023-05-18T14:32:26.871Z,31.79
2023-05-18T14:34:56.598Z,30.56
2023-05-18T14:37:23.668Z,29.55
2023-05-18T14:39:50.706Z,28.67
2023-05-18T14:42:17.705Z,28.03
2023-05-18T14:44:45.099Z,27.88
2023-05-18T14:47:11.850Z,28.02
2023-05-18T14:49:38.743Z,28.30
2023-05-18T14:52:06.285Z,28.76
2023-05-18T14:54:33.210Z,29.12
2023-05-18T14:57:01.281Z,29.74
2023-05-18T14:59:28.235Z,30.03
2023-05-18T15:01:55.229Z,29.87
2023-05-18T15:04:22.257Z,30.17
2023-05-18T15:06:52.394Z,29.99
2023-05-18T15:09:19.399Z,29.60
2023-05-18T15:11:46.518Z,29.45
2023-05-18T15:14:13.245Z,29.44
2023-05-18T15:16:40.130Z,29.63
2023-05-18T15:19:07.140Z,30.01
2023-05-18T15:21:34.428Z,30.79
2023-05-18T15:24:01.694Z,31.60
2023-05-18T15:26:28.569Z,32.38
2023-05-18T15:28:56.366Z,33.11
2023-05-18T15:31:22.988Z,33.11
2023-05-18T15:33:50.021Z,32.69
2023-05-18T15:36:16.827Z,32.17
2023-05-18T15:38:43.603Z,31.68
2023-05-18T15:41:10.818Z,30.86
2023-05-18T15:43:39.095Z,29.82
2023-05-18T15:46:06.166Z,28.63
2023-05-18T15:48:32.899Z,27.89
2023-05-18T15:50:59.771Z,26.96
2023-05-18T15:53:26.416Z,26.39
2023-05-18T15:55:57.506Z,25.83
2023-05-18T15:58:26.562Z,25.55
2023-05-18T16:00:53.841Z,25.59
2023-05-18T16:03:20.975Z,25.45
2023-05-18T16:05:48.321Z,25.17
2023-05-18T16:08:15.059Z,25.04
2023-05-18T16:10:41.826Z,25.00
2023-05-18T16:13:09.099Z,25.01
2023-05-18T16:15:35.970Z,25.10
2023-05-18T16:18:03.017Z,25.16
2023-05-18T16:20:30.507Z,25.28
2023-05-18T16:22:58.389Z,25.25
2023-05-18T16:25:26.277Z,25.06
2023-05-18T16:27:52.884Z,24.78
2023-05-18T16:30:19.597Z,24.59
2023-05-18T16:32:47.015Z,24.46
2023-05-18T16:35:13.739Z,24.41
2023-05-18T16:37:40.840Z,24.50
2023-05-18T16:40:08.401Z,24.58
2023-05-18T16:42:35.339Z,24.72
2023-05-18T16:45:02.686Z,24.75
2023-05-18T16:47:32.676Z,24.68
2023-05-18T16:49:59.952Z,24.81
2023-05-18T16:52:26.997Z,25.16
2023-05-18T16:54:53.780Z,25.45
2023-05-18T16:57:21.099Z,25.78
2023-05-18T16:59:47.840Z,26.05
2023-05-18T17:02:15.533Z,26.17
2023-05-18T17:04:42.941Z,26.42
2023-05-18T17:07:09.921Z,26.66
2023-05-18T17:09:40.131Z,26.78
2023-05-18T17:12:08.081Z,27.04
2023-05-18T17:14:35.282Z,27.48
2023-05-18T17:17:02.011Z,27.58
2023-05-18T17:19:29.040Z,27.35
2023-05-18T17:21:56.624Z,27.39
2023-05-18T17:24:24.758Z,27.30
2023-05-18T17:26:51.936Z,27.26
2023-05-18T17:29:21.034Z,27.11
2023-05-18T17:31:48.981Z,26.96
2023-05-18T17:34:16.181Z,26.77
2023-05-18T17:36:42.772Z,26.43
2023-05-18T17:39:09.617Z,25.93
2023-05-18T17:41:36.953Z,25.33
2023-05-18T17:44:04.026Z,24.75
2023-05-18T17:46:30.917Z,24.30
2023-05-18T17:48:57.918Z,23.91
2023-05-18T17:51:25.030Z,23.61
2023-05-18T17:53:51.728Z,23.26
2023-05-18T17:56:18.552Z,22.81
2023-05-18T17:58:46.008Z,22.45
2023-05-18T18:01:13.082Z,22.22
2023-05-18T18:03:40.258Z,22.07
2023-05-18T18:06:07.244Z,21.96
2023-05-18T18:08:34.268Z,21.84
2023-05-18T18:11:00.888Z,21.67
2023-05-18T18:13:27.935Z,21.60
2023-05-18T18:15:54.613Z,21.42
2023-05-18T18:18:21.502Z,21.33
2023-05-18T18:20:48.407Z,21.24
2023-05-18T18:23:15.779Z,21.15
2023-05-18T18:25:44.093Z,20.94
2023-05-18T18:28:15.334Z,20.77
2023-05-18T18:30:44.560Z,20.56
2023-05-18T18:33:11.722Z,20.37
2023-05-18T18:35:38.679Z,20.17
2023-05-18T18:38:05.707Z,20.00
2023-05-18T18:40:33.999Z,19.74
2023-05-18T18:43:01.387Z,19.53
2023-05-18T18:45:30.060Z,19.37
2023-05-18T18:47:56.987Z,19.18
2023-05-18T18:50:23.869Z,18.97
2023-05-18T18:52:50.748Z,18.79
2023-05-18T18:55:18.048Z,18.50
2023-05-18T18:57:45.820Z,18.20
2023-05-18T19:00:15.054Z,17.91
2023-05-18T19:02:41.808Z,17.60
2023-05-18T19:05:09.778Z,17.30
2023-05-18T19:07:36.780Z,16.96
2023-05-18T19:10:04.561Z,16.65
2023-05-18T19:12:32.950Z,16.36
2023-05-18T19:14:59.885Z,16.08
2023-05-18T19:17:26.972Z,15.81
2023-05-18T19:19:54.046Z,15.55
2023-05-18T19:22:20.856Z,15.33
2023-05-18T19:24:47.707Z,15.13
2023-05-18T19:27:14.460Z,14.92
2023-05-18T19:29:41.072Z,14.73
2023-05-18T19:32:08.006Z,14.55
2023-05-18T19:34:35.160Z,14.40
2023-05-18T19:37:01.876Z,14.25
2023-05-18T19:39:28.921Z,14.15
2023-05-18T19:41:55.617Z,14.05
2023-05-18T19:44:22.310Z,13.92
2023-05-18T19:46:48.915Z,13.79
2023-05-18T19:49:16.105Z,13.66
2023-05-18T19:51:43.145Z,13.54
2023-05-18T19:54:10.271Z,13.41
2023-05-18T19:56:37.198Z,13.29
2023-05-18T19:59:04.280Z,13.19
2023-05-18T20:01:32.319Z,13.05
2023-05-18T20:03:59.992Z,12.90
2023-05-18T20:06:29.274Z,12.78
2023-05-18T20:08:55.812Z,12.69
2023-05-18T20:11:22.770Z,12.59
2023-05-18T20:13:49.776Z,12.52
2023-05-18T20:16:16.623Z,12.43
2023-05-18T20:18:45.973Z,12.35
2023-05-18T20:21:12.906Z,12.27
2023-05-18T20:23:39.479Z,12.18
2023-05-18T20:26:06.742Z,12.11
2023-05-18T20:28:34.498Z,12.03
2023-05-18T20:31:04.307Z,11.96
2023-05-18T20:33:34.320Z,11.92
2023-05-18T20:36:01.844Z,11.84
2023-05-18T20:38:29.026Z,11.76
2023-05-18T20:40:58.264Z,11.70
2023-05-18T20:43:25.284Z,11.65
2023-05-18T20:45:52.584Z,11.62
2023-05-18T20:48:26.912Z,11.60
2023-05-18T20:50:53.827Z,11.55
2023-05-18T20:53:20.597Z,11.50
2023-05-18T20:55:47.812Z,11.41
2023-05-18T20:58:18.536Z,11.36
2023-05-18T21:00:46.598Z,11.31
2023-05-18T21:03:14.013Z,11.27
2023-05-18T21:05:41.485Z,11.21
2023-05-18T21:08:08.618Z,11.14
2023-05-18T21:10:35.986Z,11.07
2023-05-18T21:13:03.389Z,11.00
2023-05-18T21:15:31.585Z,10.93
2023-05-18T21:17:58.741Z,10.85
2023-05-18T21:20:26.003Z,10.77
2023-05-18T21:22:53.391Z,10.70
2023-05-18T21:25:20.741Z,10.62
2023-05-18T21:27:48.065Z,10.55
2023-05-18T21:30:15.949Z,10.48
2023-05-18T21:32:43.672Z,10.42
2023-05-18T21:35:10.774Z,10.36
2023-05-18T21:37:37.772Z,10.31
2023-05-18T21:40:05.243Z,10.28
2023-05-18T21:42:33.300Z,10.22
2023-05-18T21:45:00.098Z,10.16
2023-05-18T21:47:26.726Z,10.11
2023-05-18T21:49:53.781Z,10.06
2023-05-18T21:52:20.772Z,10.00
2023-05-18T21:54:48.014Z,9.95
2023-05-18T21:57:14.712Z,9.90
2023-05-18T21:59:41.453Z,9.85
2023-05-18T22:02:08.507Z,9.79
2023-05-18T22:04:35.612Z,9.73
2023-05-18T22:07:02.611Z,9.68
2023-05-18T22:09:29.270Z,9.63
2023-05-18T22:11:56.090Z,9.58
2023-05-18T22:14:22.874Z,9.54
2023-05-18T22:16:49.788Z,9.49
2023-05-18T22:19:16.934Z,9.43
2023-05-18T22:21:43.945Z,9.39
2023-05-18T22:24:10.728Z,9.34
2023-05-18T22:26:37.609Z,9.29
2023-05-18T22:29:04.688Z,9.25
2023-05-18T22:31:32.750Z,9.21
2023-05-18T22:34:00.008Z,9.17
2023-05-18T22:36:27.473Z,9.14
2023-05-18T22:38:54.391Z,9.10
2023-05-18T22:41:22.520Z,9.07
2023-05-18T22:43:49.182Z,9.05
2023-05-18T22:46:15.939Z,9.03
2023-05-18T22:48:42.939Z,9.02
2023-05-18T22:51:10.168Z,9.01
2023-05-18T22:53:37.139Z,9.00
2023-05-18T22:56:06.882Z,8.98
2023-05-18T22:58:33.695Z,8.98
2023-05-18T23:01:01.039Z,8.99
2023-05-18T23:03:27.734Z,8.99
2023-05-18T23:05:54.733Z,8.99
2023-05-18T23:08:22.202Z,9.00
2023-05-18T23:10:50.709Z,9.01
2023-05-18T23:13:17.522Z,9.01
2023-05-18T23:15:44.407Z,9.01
2023-05-18T23:18:12.561Z,9.01
2023-05-18T23:20:40.042Z,9.00
2023-05-18T23:23:06.940Z,9.00
2023-05-18T23:25:37.157Z,9.00
2023-05-18T23:28:06.953Z,9.00
2023-05-18T23:30:33.977Z,8.99
2023-05-18T23:33:01.540Z,9.01
2023-05-18T23:35:28.914Z,9.01
2023-05-18T23:37:57.732Z,9.02
2023-05-18T23:40:25.216Z,9.02
2023-05-18T23:42:52.229Z,9.03
2023-05-18T23:45:20.022Z,9.04
2023-05-18T23:47:47.664Z,9.02
2023-05-18T23:50:15.930Z,9.01
2023-05-18T23:52:47.032Z,9.00
2023-05-18T23:55:14.497Z,9.00
2023-05-18T23:57:41.774Z,9.00
